createdAt,value
2022-08-17T00:01:32.744Z,44.92
2022-08-17T00:04:19.401Z,48.00
2022-08-17T00:06:47.580Z,47.67
2022-08-17T00:09:19.374Z,45.58
2022-08-17T00:12:41.694Z,47.47
2022-08-17T00:14:36.127Z,47.10
2022-08-17T00:17:04.751Z,45.95
2022-08-17T00:19:32.927Z,49.20
2022-08-17T00:22:34.789Z,48.80
2022-08-17T00:24:51.915Z,44.50
2022-08-17T00:27:19.948Z,48.90
2022-08-17T00:29:47.541Z,50.10
2022-08-17T00:33:14.210Z,52.13
2022-08-17T00:35:05.056Z,54.55
2022-08-17T00:37:32.639Z,49.90
2022-08-17T00:40:01.616Z,51.58
2022-08-17T00:42:31.288Z,50.15
2022-08-17T00:44:59.055Z,48.43
2022-08-17T00:47:26.797Z,55.95
2022-08-17T00:49:54.325Z,50.65
2022-08-17T00:52:23.663Z,51.20
2022-08-17T00:54:55.173Z,49.60
2022-08-17T00:57:25.638Z,54.67
2022-08-17T01:00:01.813Z,49.38
2022-08-17T01:02:42.060Z,52.17
2022-08-17T01:05:13.453Z,50.45
2022-08-17T01:07:43.126Z,53.03
2022-08-17T01:10:58.196Z,52.33
2022-08-17T01:13:03.167Z,52.90
2022-08-17T01:15:31.404Z,54.50
2022-08-17T01:18:00.203Z,52.97
2022-08-17T01:20:27.847Z,51.90
2022-08-17T01:22:57.042Z,53.80
2022-08-17T01:25:24.801Z,51.55
2022-08-17T01:27:52.366Z,53.45
2022-08-17T01:30:58.620Z,50.40
2022-08-17T01:33:11.387Z,51.58
2022-08-17T01:35:39.033Z,51.90
2022-08-17T01:38:09.482Z,55.30
2022-08-17T01:40:39.150Z,56.15
2022-08-17T01:43:09.508Z,54.10
2022-08-17T01:45:40.212Z,54.90
2022-08-17T01:48:07.780Z,53.50
2022-08-17T01:50:37.930Z,53.22
2022-08-17T01:53:06.502Z,51.97
2022-08-17T01:55:39.404Z,53.70
2022-08-17T01:58:09.693Z,54.67
2022-08-17T02:00:54.529Z,54.60
2022-08-17T02:03:25.904Z,53.60
2022-08-17T02:05:54.306Z,51.70
2022-08-17T02:08:37.246Z,55.10
2022-08-17T02:11:14.629Z,54.20
2022-08-17T02:13:42.363Z,53.60
2022-08-17T02:16:09.931Z,59.05
2022-08-17T02:18:37.514Z,53.67
2022-08-17T02:21:05.805Z,56.75
2022-08-17T02:23:34.726Z,57.38
2022-08-17T02:26:02.361Z,61.13
2022-08-17T02:28:31.472Z,56.45
2022-08-17T02:31:04.209Z,54.90
2022-08-17T02:33:41.652Z,57.20
2022-08-17T02:36:11.461Z,60.33
2022-08-17T02:38:39.424Z,61.93
2022-08-17T02:41:07.286Z,57.03
2022-08-17T02:43:36.361Z,62.67
2022-08-17T02:46:03.900Z,57.92
2022-08-17T02:48:32.124Z,57.70
2022-08-17T02:50:59.959Z,55.53
2022-08-17T02:53:27.603Z,56.42
2022-08-17T02:56:03.075Z,58.65
2022-08-17T02:58:35.753Z,61.65
2022-08-17T03:01:05.280Z,65.93
2022-08-17T03:03:33.007Z,59.97
2022-08-17T03:06:00.575Z,57.45
2022-08-17T03:08:28.329Z,68.05
2022-08-17T03:10:55.994Z,64.93
2022-08-17T03:13:24.140Z,54.97
2022-08-17T03:15:51.997Z,61.10
2022-08-17T03:18:25.402Z,89.28
2022-08-17T03:20:53.676Z,83.60
2022-08-17T03:23:23.834Z,110.57
2022-08-17T03:25:52.948Z,71.13
2022-08-17T03:28:21.256Z,78.47
2022-08-17T03:30:49.027Z,62.50
2022-08-17T03:33:17.026Z,55.97
2022-08-17T03:35:45.992Z,62.22
2022-08-17T03:38:15.081Z,63.88
2022-08-17T03:40:56.853Z,54.80
2022-08-17T03:43:26.076Z,60.95
2022-08-17T03:46:27.724Z,56.17
2022-08-17T03:49:15.786Z,49.40
2022-08-17T03:52:02.198Z,50.67
2022-08-17T03:54:46.983Z,49.00
2022-08-17T03:57:14.526Z,53.97
2022-08-17T03:59:42.069Z,48.10
2022-08-17T04:02:12.250Z,50.22
2022-08-17T04:04:40.159Z,70.70
2022-08-17T04:07:09.133Z,72.00
2022-08-17T04:09:37.581Z,62.95
2022-08-17T04:12:05.664Z,55.53
2022-08-17T04:14:52.178Z,52.67
2022-08-17T04:17:22.126Z,59.80
2022-08-17T04:19:49.657Z,53.87
2022-08-17T04:22:33.179Z,54.30
2022-08-17T04:25:09.351Z,54.92
2022-08-17T04:27:36.970Z,51.58
2022-08-17T04:30:06.955Z,53.92
2022-08-17T04:33:02.239Z,52.73
2022-08-17T04:35:23.094Z,52.50
2022-08-17T04:37:52.318Z,50.53
2022-08-17T04:40:37.963Z,48.72
2022-08-17T04:43:07.067Z,51.15
2022-08-17T04:45:34.943Z,50.90
2022-08-17T04:48:02.527Z,51.28
2022-08-17T04:50:30.084Z,51.33
2022-08-17T04:52:59.221Z,53.03
2022-08-17T04:55:26.990Z,53.38
2022-08-17T04:57:54.580Z,54.00
2022-08-17T05:00:22.251Z,53.63
2022-08-17T05:02:51.145Z,57.85
2022-08-17T05:05:19.834Z,52.70
2022-08-17T05:07:48.434Z,49.15
2022-08-17T05:10:17.434Z,48.63
2022-08-17T05:12:44.978Z,45.92
2022-08-17T05:15:15.938Z,42.05
2022-08-17T05:17:43.538Z,43.17
2022-08-17T05:20:12.105Z,43.30
2022-08-17T05:22:49.378Z,44.50
2022-08-17T05:25:20.662Z,45.30
2022-08-17T05:27:53.175Z,41.33
2022-08-17T05:30:20.896Z,45.20
2022-08-17T05:32:52.218Z,40.80
2022-08-17T05:35:19.917Z,37.10
2022-08-17T05:37:47.468Z,41.88
2022-08-17T05:40:15.177Z,37.50
2022-08-17T05:42:44.124Z,35.00
2022-08-17T05:45:12.166Z,39.65
2022-08-17T05:47:40.545Z,38.03
2022-08-17T05:50:09.491Z,35.13
2022-08-17T05:52:41.107Z,37.42
2022-08-17T05:55:15.391Z,39.72
2022-08-17T05:57:53.784Z,40.53
2022-08-17T06:00:29.980Z,36.80
2022-08-17T06:03:28.327Z,38.15
2022-08-17T06:06:01.294Z,35.95
2022-08-17T06:08:33.236Z,37.80
2022-08-17T06:11:03.620Z,36.40
2022-08-17T06:13:45.673Z,38.60
2022-08-17T06:16:31.161Z,37.65
2022-08-17T06:19:03.516Z,36.80
2022-08-17T06:21:34.500Z,35.65
2022-08-17T06:24:05.434Z,33.92
2022-08-17T06:26:37.381Z,35.47
2022-08-17T06:29:18.633Z,30.58
2022-08-17T06:31:46.599Z,32.20
2022-08-17T06:34:14.321Z,28.60
2022-08-17T06:36:48.674Z,29.85
2022-08-17T06:39:22.159Z,27.73
2022-08-17T06:41:53.906Z,25.65
2022-08-17T06:44:50.310Z,27.00
2022-08-17T06:47:13.681Z,26.48
2022-08-17T06:49:44.318Z,25.20
2022-08-17T06:52:42.447Z,24.43
2022-08-17T06:55:06.160Z,22.23
2022-08-17T06:57:35.155Z,23.13
2022-08-17T07:00:07.417Z,22.80
2022-08-17T07:02:52.154Z,22.38
2022-08-17T07:05:22.455Z,21.00
2022-08-17T07:08:05.686Z,22.05
2022-08-17T07:10:37.440Z,22.92
2022-08-17T07:13:14.594Z,23.08
2022-08-17T07:15:44.044Z,23.65
2022-08-17T07:18:11.818Z,22.20
2022-08-17T07:20:42.791Z,24.23
2022-08-17T07:23:14.837Z,26.88
2022-08-17T07:25:42.393Z,24.48
2022-08-17T07:28:09.932Z,26.20
2022-08-17T07:30:47.027Z,25.83
2022-08-17T07:33:20.262Z,24.55
2022-08-17T07:35:49.858Z,28.13
2022-08-17T07:38:25.205Z,26.80
2022-08-17T07:41:02.516Z,26.88
2022-08-17T07:43:31.740Z,24.10
2022-08-17T07:46:30.161Z,25.58
2022-08-17T07:49:17.048Z,25.42
2022-08-17T07:51:55.438Z,28.10
2022-08-17T07:54:28.704Z,28.52
2022-08-17T07:56:57.052Z,25.43
2022-08-17T07:59:25.543Z,24.45
2022-08-17T08:02:21.803Z,25.00
2022-08-17T08:05:02.785Z,21.60
2022-08-17T08:07:36.482Z,19.75
2022-08-17T08:10:10.879Z,23.97
2022-08-17T08:12:39.573Z,19.77
2022-08-17T08:15:13.969Z,21.52
2022-08-17T08:17:50.226Z,21.02
2022-08-17T08:20:50.958Z,20.77
2022-08-17T08:23:12.669Z,23.00
2022-08-17T08:25:53.340Z,23.50
2022-08-17T08:28:28.720Z,23.27
2022-08-17T08:30:59.562Z,23.95
2022-08-17T08:33:33.137Z,24.15
2022-08-17T08:36:05.304Z,23.90
2022-08-17T08:38:38.282Z,23.63
2022-08-17T08:41:17.340Z,25.67
2022-08-17T08:43:52.829Z,26.38
2022-08-17T08:46:24.713Z,26.33
2022-08-17T08:49:06.520Z,25.97
2022-08-17T08:51:46.588Z,30.00
2022-08-17T08:54:26.471Z,25.40
2022-08-17T08:57:22.220Z,25.92
2022-08-17T08:59:59.224Z,23.80
2022-08-17T09:02:34.857Z,25.43
2022-08-17T09:05:14.377Z,28.00
2022-08-17T09:07:51.830Z,23.77
2022-08-17T09:10:26.820Z,50.40
2022-08-17T09:12:58.887Z,46.53
2022-08-17T09:15:27.781Z,25.50
2022-08-17T09:18:21.371Z,102.82
2022-08-17T09:20:50.375Z,24.98
2022-08-17T09:23:32.488Z,20.27
2022-08-17T09:26:03.901Z,175.32
2022-08-17T09:28:33.937Z,20.97
2022-08-17T09:31:03.351Z,21.87
2022-08-17T09:33:32.690Z,23.02
2022-08-17T09:36:05.860Z,18.77
2022-08-17T09:38:41.616Z,17.95
2022-08-17T09:41:13.224Z,24.02
2022-08-17T09:43:44.714Z,21.85
2022-08-17T09:46:15.362Z,18.70
2022-08-17T09:48:46.413Z,19.88
2022-08-17T09:51:16.606Z,16.83
2022-08-17T09:53:45.543Z,16.20
2022-08-17T09:56:25.639Z,18.70
2022-08-17T09:59:04.001Z,17.00
2022-08-17T10:01:36.926Z,16.10
2022-08-17T10:04:20.305Z,17.08
2022-08-17T10:06:51.044Z,17.65
2022-08-17T10:09:23.205Z,16.73
2022-08-17T10:12:11.489Z,17.23
2022-08-17T10:14:44.689Z,15.23
2022-08-17T10:17:25.714Z,13.88
2022-08-17T10:19:59.340Z,16.20
2022-08-17T10:22:51.170Z,14.50
2022-08-17T10:25:54.076Z,15.35
2022-08-17T10:28:28.872Z,14.63
2022-08-17T10:31:23.395Z,14.70
2022-08-17T10:33:50.977Z,15.75
2022-08-17T10:36:20.586Z,15.65
2022-08-17T10:38:49.192Z,16.17
2022-08-17T10:41:25.149Z,15.43
2022-08-17T10:44:38.454Z,12.90
2022-08-17T10:46:52.141Z,12.70
2022-08-17T10:49:27.868Z,11.97
2022-08-17T10:51:56.305Z,12.90
2022-08-17T10:54:38.189Z,12.35
2022-08-17T10:57:31.622Z,14.90
2022-08-17T10:59:59.708Z,12.60
2022-08-17T11:02:29.326Z,12.40
2022-08-17T11:05:08.534Z,11.43
2022-08-17T11:07:45.668Z,14.45
2022-08-17T11:10:44.183Z,11.40
2022-08-17T11:13:17.616Z,13.23
2022-08-17T11:15:58.744Z,12.40
2022-08-17T11:18:37.271Z,11.70
2022-08-17T11:21:13.969Z,12.57
2022-08-17T11:24:02.743Z,11.52
2022-08-17T11:26:32.042Z,13.52
2022-08-17T11:29:03.273Z,12.45
2022-08-17T11:31:38.396Z,12.10
2022-08-17T11:34:08.892Z,13.70
2022-08-17T11:36:41.999Z,12.00
2022-08-17T11:39:21.417Z,12.50
2022-08-17T11:41:51.019Z,12.80
2022-08-17T11:44:24.206Z,12.38
2022-08-17T11:47:24.617Z,12.40
2022-08-17T11:50:17.109Z,10.80
2022-08-17T11:52:46.771Z,11.70
2022-08-17T11:55:39.531Z,11.53
2022-08-17T11:58:34.167Z,11.50
2022-08-17T12:01:03.207Z,12.68
2022-08-17T12:03:53.817Z,11.63
2022-08-17T12:06:30.318Z,13.02
2022-08-17T12:09:01.294Z,15.37
2022-08-17T12:12:11.380Z,11.77
2022-08-17T12:14:29.534Z,13.10
2022-08-17T12:17:14.113Z,13.88
2022-08-17T12:19:54.695Z,12.48
2022-08-17T12:22:32.932Z,11.80
2022-08-17T12:25:02.057Z,13.00
2022-08-17T12:27:56.823Z,12.50
2022-08-17T12:30:22.327Z,15.07
2022-08-17T12:32:51.276Z,12.35
2022-08-17T12:35:21.363Z,13.43
2022-08-17T12:37:50.298Z,12.70
2022-08-17T12:40:22.563Z,12.95
2022-08-17T12:42:55.785Z,14.40
2022-08-17T12:45:24.627Z,13.32
2022-08-17T12:48:02.693Z,12.27
2022-08-17T12:50:32.191Z,13.40
2022-08-17T12:53:02.263Z,12.13
2022-08-17T12:55:32.532Z,16.60
2022-08-17T12:58:02.261Z,13.23
2022-08-17T13:00:31.362Z,12.23
2022-08-17T13:03:00.608Z,14.23
2022-08-17T13:05:30.306Z,13.40
2022-08-17T13:07:59.031Z,12.73
2022-08-17T13:10:32.202Z,13.18
2022-08-17T13:13:04.803Z,12.83
2022-08-17T13:15:34.015Z,16.15
2022-08-17T13:18:04.975Z,11.77
2022-08-17T13:20:36.394Z,12.55
2022-08-17T13:23:11.894Z,13.80
2022-08-17T13:25:39.894Z,13.03
2022-08-17T13:28:07.457Z,11.07
2022-08-17T13:30:35.037Z,12.40
2022-08-17T13:33:04.889Z,11.40
2022-08-17T13:35:40.536Z,11.50
2022-08-17T13:38:10.330Z,12.07
2022-08-17T13:40:42.712Z,11.02
2022-08-17T13:43:10.381Z,11.05
2022-08-17T13:45:43.416Z,12.77
2022-08-17T13:48:14.479Z,13.95
2022-08-17T13:50:45.085Z,11.30
2022-08-17T13:53:20.490Z,12.13
2022-08-17T13:55:49.802Z,11.85
2022-08-17T13:58:21.379Z,10.68
2022-08-17T14:00:50.636Z,10.75
2022-08-17T14:03:18.241Z,10.00
2022-08-17T14:05:47.269Z,11.38
2022-08-17T14:08:16.242Z,10.52
2022-08-17T14:10:45.539Z,11.45
2022-08-17T14:13:15.313Z,11.93
2022-08-17T14:15:54.662Z,10.33
2022-08-17T14:18:50.656Z,10.00
2022-08-17T14:21:13.626Z,11.32
2022-08-17T14:23:41.971Z,12.20
2022-08-17T14:26:16.658Z,9.50
2022-08-17T14:28:54.478Z,9.87
2022-08-17T14:31:23.764Z,11.70
2022-08-17T14:33:51.454Z,11.35
2022-08-17T14:36:20.465Z,9.80
2022-08-17T14:38:47.998Z,10.32
2022-08-17T14:41:21.463Z,9.90
2022-08-17T14:43:49.660Z,11.05
2022-08-17T14:46:17.206Z,9.55
2022-08-17T14:48:44.797Z,10.52
2022-08-17T14:51:12.826Z,11.00
2022-08-17T14:53:43.547Z,10.73
2022-08-17T14:56:11.073Z,10.65
2022-08-17T14:58:38.960Z,10.68
2022-08-17T15:01:09.046Z,9.57
2022-08-17T15:03:39.498Z,10.60
2022-08-17T15:06:07.214Z,8.97
2022-08-17T15:08:37.126Z,9.32
2022-08-17T15:11:06.120Z,9.85
2022-08-17T15:13:52.673Z,9.15
2022-08-17T15:16:21.098Z,9.23
2022-08-17T15:18:49.078Z,10.13
2022-08-17T15:21:16.636Z,10.40
2022-08-17T15:23:44.198Z,10.65
2022-08-17T15:26:13.216Z,9.07
2022-08-17T15:28:40.753Z,8.70
2022-08-17T15:31:08.334Z,7.87
2022-08-17T15:33:35.942Z,7.93
2022-08-17T15:36:06.435Z,8.63
2022-08-17T15:38:39.250Z,9.32
2022-08-17T15:41:08.606Z,8.40
2022-08-17T15:43:37.557Z,8.83
2022-08-17T15:46:06.997Z,8.20
2022-08-17T15:48:45.242Z,8.20
2022-08-17T15:51:14.265Z,6.93
2022-08-17T15:53:42.467Z,6.32
2022-08-17T15:56:10.142Z,7.83
2022-08-17T15:58:40.127Z,6.72
2022-08-17T16:01:14.985Z,5.80
2022-08-17T16:04:04.223Z,6.75
2022-08-17T16:06:34.507Z,7.65
2022-08-17T16:09:02.077Z,6.70
2022-08-17T16:11:29.650Z,6.72
2022-08-17T16:13:58.531Z,7.65
2022-08-17T16:16:28.922Z,7.78
2022-08-17T16:18:58.669Z,9.75
2022-08-17T16:21:27.119Z,9.77
2022-08-17T16:23:56.720Z,9.63
2022-08-17T16:26:24.736Z,12.60
2022-08-17T16:28:52.264Z,10.20
2022-08-17T16:31:21.218Z,11.20
2022-08-17T16:34:15.788Z,12.80
2022-08-17T16:36:37.432Z,11.10
2022-08-17T16:39:05.288Z,12.30
2022-08-17T16:41:44.355Z,11.02
2022-08-17T16:44:15.303Z,12.68
2022-08-17T16:46:46.091Z,13.27
2022-08-17T16:49:36.156Z,12.55
2022-08-17T16:52:03.343Z,11.50
2022-08-17T16:54:30.976Z,12.88
2022-08-17T16:56:58.848Z,12.38
2022-08-17T16:59:30.337Z,11.07
2022-08-17T17:02:11.180Z,12.27
2022-08-17T17:04:42.131Z,11.30
2022-08-17T17:07:16.677Z,11.45
2022-08-17T17:09:46.437Z,11.35
2022-08-17T17:12:18.697Z,13.27
2022-08-17T17:15:02.705Z,10.32
2022-08-17T17:17:33.934Z,12.13
2022-08-17T17:20:03.970Z,13.27
2022-08-17T17:22:34.139Z,12.40
2022-08-17T17:25:07.932Z,12.50
2022-08-17T17:27:40.624Z,11.18
2022-08-17T17:30:09.744Z,12.45
2022-08-17T17:32:40.679Z,12.32
2022-08-17T17:35:10.536Z,12.07
2022-08-17T17:37:38.809Z,10.47
2022-08-17T17:40:09.467Z,12.00
2022-08-17T17:42:40.494Z,11.52
2022-08-17T17:45:10.686Z,10.32
2022-08-17T17:47:39.627Z,11.90
2022-08-17T17:50:08.583Z,10.67
2022-08-17T17:52:40.977Z,12.40
2022-08-17T17:55:14.542Z,11.02
2022-08-17T17:57:47.318Z,10.10
2022-08-17T18:00:17.106Z,10.48
2022-08-17T18:02:56.762Z,9.50
2022-08-17T18:05:44.312Z,9.98
2022-08-17T18:08:16.814Z,10.27
2022-08-17T18:10:49.427Z,9.93
2022-08-17T18:13:21.198Z,10.07
2022-08-17T18:15:54.405Z,7.80
2022-08-17T18:18:37.797Z,8.85
2022-08-17T18:21:07.589Z,8.10
2022-08-17T18:23:35.408Z,8.65
2022-08-17T18:26:03.018Z,9.32
2022-08-17T18:28:31.542Z,10.90
2022-08-17T18:31:10.319Z,12.02
2022-08-17T18:33:39.836Z,12.70
2022-08-17T18:36:07.798Z,10.27
2022-08-17T18:38:36.519Z,14.80
2022-08-17T18:41:06.091Z,9.93
2022-08-17T18:43:43.951Z,12.10
2022-08-17T18:46:28.207Z,10.77
2022-08-17T18:48:59.527Z,11.18
2022-08-17T18:51:41.724Z,10.23
2022-08-17T18:54:18.060Z,10.30
2022-08-17T18:56:50.255Z,10.60
2022-08-17T18:59:24.136Z,9.52
2022-08-17T19:02:16.118Z,10.13
2022-08-17T19:05:07.847Z,8.60
2022-08-17T19:07:37.619Z,10.23
2022-08-17T19:10:12.193Z,11.88
2022-08-17T19:12:42.747Z,10.90
2022-08-17T19:15:11.612Z,10.98
2022-08-17T19:17:43.863Z,10.93
2022-08-17T19:20:15.517Z,11.37
2022-08-17T19:22:49.947Z,10.73
2022-08-17T19:25:21.902Z,11.32
2022-08-17T19:27:57.693Z,11.32
2022-08-17T19:30:25.940Z,11.02
2022-08-17T19:32:53.805Z,11.37
2022-08-17T19:35:25.636Z,11.20
2022-08-17T19:37:58.294Z,10.45
2022-08-17T19:40:52.352Z,11.48
2022-08-17T19:43:23.784Z,11.15
2022-08-17T19:45:59.291Z,11.10
2022-08-17T19:48:30.485Z,10.75
2022-08-17T19:51:02.074Z,12.18
2022-08-17T19:54:01.682Z,11.05
2022-08-17T19:56:29.532Z,11.43
2022-08-17T19:58:58.993Z,11.00
2022-08-17T20:01:34.731Z,12.52
2022-08-17T20:04:07.183Z,11.00
2022-08-17T20:06:38.192Z,10.63
2022-08-17T20:09:14.971Z,10.98
2022-08-17T20:11:45.683Z,11.80
2022-08-17T20:14:14.812Z,9.90
2022-08-17T20:16:42.432Z,10.27
2022-08-17T20:19:17.896Z,10.63
2022-08-17T20:21:50.614Z,9.75
2022-08-17T20:24:21.825Z,10.90
2022-08-17T20:26:58.681Z,10.65
2022-08-17T20:29:39.836Z,10.35
2022-08-17T20:32:20.497Z,11.65
2022-08-17T20:34:48.897Z,13.77
2022-08-17T20:37:29.278Z,11.20
2022-08-17T20:40:14.824Z,10.38
2022-08-17T20:42:42.419Z,11.00
2022-08-17T20:45:26.191Z,11.95
2022-08-17T20:48:22.154Z,10.70
2022-08-17T20:50:45.783Z,10.70
2022-08-17T20:53:36.561Z,12.02
2022-08-17T20:56:04.294Z,12.40
2022-08-17T20:58:52.636Z,13.57
2022-08-17T21:01:34.957Z,13.68
2022-08-17T21:04:06.961Z,14.20
2022-08-17T21:06:34.501Z,12.93
2022-08-17T21:09:16.907Z,11.82
2022-08-17T21:12:03.982Z,13.77
2022-08-17T21:14:36.526Z,17.83
2022-08-17T21:17:12.201Z,13.13
2022-08-17T21:20:07.708Z,13.98
2022-08-17T21:22:37.398Z,19.05
2022-08-17T21:25:10.473Z,17.95
2022-08-17T21:27:44.916Z,21.20
2022-08-17T21:30:16.828Z,18.63
2022-08-17T21:32:45.914Z,19.95
2022-08-17T21:35:25.052Z,20.08
2022-08-17T21:37:54.371Z,18.08
2022-08-17T21:40:24.536Z,19.58
2022-08-17T21:42:55.657Z,22.73
2022-08-17T21:45:25.890Z,24.35
2022-08-17T21:48:07.826Z,26.17
2022-08-17T21:50:35.904Z,28.88
2022-08-17T21:53:04.212Z,27.98
2022-08-17T21:55:33.525Z,27.53
2022-08-17T21:58:14.858Z,29.25
2022-08-17T22:00:44.174Z,36.17
2022-08-17T22:03:23.599Z,29.58
2022-08-17T22:05:51.535Z,31.00
2022-08-17T22:08:21.791Z,31.43
2022-08-17T22:10:50.724Z,30.42
2022-08-17T22:13:22.356Z,31.15
2022-08-17T22:15:51.995Z,31.73
2022-08-17T22:18:22.585Z,31.30
2022-08-17T22:20:53.816Z,31.30
2022-08-17T22:23:44.175Z,34.38
2022-08-17T22:26:14.360Z,32.25
2022-08-17T22:28:45.732Z,34.40
2022-08-17T22:31:14.665Z,32.25
2022-08-17T22:33:44.418Z,31.87
2022-08-17T22:36:13.541Z,33.08
2022-08-17T22:38:43.701Z,32.08
2022-08-17T22:41:34.539Z,32.95
2022-08-17T22:44:09.844Z,33.45
2022-08-17T22:46:40.420Z,34.50
2022-08-17T22:49:08.042Z,28.50
2022-08-17T22:51:35.575Z,34.50
2022-08-17T22:54:31.576Z,32.70
2022-08-17T22:57:18.795Z,33.20
2022-08-17T22:59:49.481Z,35.30
2022-08-17T23:02:24.836Z,32.17
2022-08-17T23:04:54.039Z,32.63
2022-08-17T23:07:21.774Z,34.10
2022-08-17T23:09:49.302Z,36.28
2022-08-17T23:12:22.305Z,36.70
2022-08-17T23:14:57.012Z,34.83
2022-08-17T23:17:24.532Z,32.22
2022-08-17T23:19:52.053Z,32.42
2022-08-17T23:22:19.617Z,29.38
2022-08-17T23:24:50.597Z,29.67
2022-08-17T23:27:18.371Z,26.25
2022-08-17T23:29:47.070Z,33.85
2022-08-17T23:32:16.906Z,31.95
2022-08-17T23:34:47.058Z,32.67
2022-08-17T23:37:15.142Z,30.00
2022-08-17T23:39:44.683Z,30.55
2022-08-17T23:42:14.235Z,31.35
2022-08-17T23:44:43.650Z,33.05
2022-08-17T23:47:11.634Z,33.17
2022-08-17T23:49:41.360Z,32.33
2022-08-17T23:52:12.592Z,34.55
2022-08-17T23:54:44.517Z,34.05
2022-08-17T23:57:12.722Z,38.42
2022-08-17T23:59:40.586Z,33.60
